Terminal Aerodrome Forecast
Issued by NWS Grand Forks, ND

Home | Current Version | Previous Version | Graphics & Text | Print | Product List | Glossary On
Versions: 1 2 3 4 5 6 7 8 9 10 11 12 13 14 15 16 17 18 19
000
FTUS43 KFGF 011100
TAFFAR
TAF
KFAR 011120Z 0112/0212 VRB04KT P6SM BKN250
     FM012100 30009KT P6SM VCSH BKN050
     FM020100 24006KT P6SM SCT060=

USA.gov is the U.S. government's official web portal to all federal, state and local government web resources and services.